createdAt,value
2019-04-23T00:01:46.331Z,4.17
2019-04-23T00:04:00.969Z,3.50
2019-04-23T00:06:32.163Z,3.80
2019-04-23T00:09:07.430Z,3.13
2019-04-23T00:11:35.743Z,4.13
2019-04-23T00:14:05.580Z,2.73
2019-04-23T00:16:42.661Z,4.13
2019-04-23T00:19:03.193Z,3.23
2019-04-23T00:21:55.084Z,3.77
2019-04-23T00:27:22.611Z,4.03
2019-04-23T00:29:45.988Z,3.40
2019-04-23T00:32:18.318Z,4.53
2019-04-23T00:34:51.416Z,3.30
2019-04-23T00:39:50.737Z,3.77
2019-04-23T00:42:28.321Z,3.40
2019-04-23T00:44:51.524Z,4.37
2019-04-23T00:47:23.195Z,4.10
2019-04-23T00:49:51.667Z,3.30
2019-04-23T00:52:20.907Z,3.57
2019-04-23T00:54:49.339Z,4.20
2019-04-23T00:57:24.526Z,3.50
2019-04-23T00:59:53.857Z,3.30
2019-04-23T01:02:26.418Z,5.00
2019-04-23T01:04:59.728Z,3.90
2019-04-23T01:07:18.725Z,3.60
2019-04-23T01:12:31.926Z,4.27
2019-04-23T01:14:55.703Z,4.27
2019-04-23T01:17:33.718Z,3.40
2019-04-23T01:20:08.449Z,4.30
2019-04-23T01:22:21.049Z,3.60
2019-04-23T01:25:07.734Z,3.33
2019-04-23T01:28:13.964Z,4.00
2019-04-23T01:30:28.255Z,4.00
2019-04-23T01:33:03.057Z,4.33
2019-04-23T01:35:24.038Z,4.30
2019-04-23T01:38:02.518Z,3.90
2019-04-23T01:40:39.374Z,4.53
2019-04-23T01:43:02.780Z,3.90
2019-04-23T01:45:44.393Z,3.23
2019-04-23T01:48:00.078Z,4.07
2019-04-23T01:50:43.376Z,3.50
2019-04-23T01:55:53.009Z,4.23
2019-04-23T02:00:40.760Z,4.57
2019-04-23T02:03:13.609Z,4.47
2019-04-23T02:05:43.349Z,4.53
2019-04-23T02:08:13.527Z,5.20
2019-04-23T02:13:16.495Z,4.10
2019-04-23T02:15:42.430Z,4.80
2019-04-23T02:20:47.954Z,4.83
2019-04-23T02:23:35.863Z,5.90
2019-04-23T02:26:09.087Z,6.03
2019-04-23T02:31:44.562Z,4.37
2019-04-23T02:36:32.540Z,5.50
2019-04-23T02:43:57.022Z,5.83
2019-04-23T02:46:09.276Z,5.70
2019-04-23T02:48:54.419Z,5.37
2019-04-23T02:51:17.992Z,5.37
2019-04-23T02:56:30.899Z,4.90
2019-04-23T02:58:52.585Z,4.90
2019-04-23T03:01:25.210Z,4.23
2019-04-23T03:03:59.799Z,5.00
2019-04-23T03:06:20.840Z,5.17
2019-04-23T03:08:50.570Z,4.80
2019-04-23T03:11:26.003Z,4.63
2019-04-23T03:14:09.350Z,6.70
2019-04-23T03:19:49.711Z,3.93
2019-04-23T03:25:15.243Z,5.70
2019-04-23T03:27:46.058Z,5.07
2019-04-23T03:37:48.973Z,5.20
2019-04-23T03:40:13.818Z,5.13
2019-04-23T03:42:51.532Z,4.87
2019-04-23T03:45:35.260Z,4.50
2019-04-23T03:47:48.665Z,4.33
2019-04-23T03:50:35.824Z,4.73
2019-04-23T03:52:46.511Z,4.70
2019-04-23T03:55:29.809Z,4.73
2019-04-23T04:05:32.933Z,5.20
2019-04-23T04:10:31.592Z,5.03
2019-04-23T04:15:46.270Z,5.37
2019-04-23T04:18:11.012Z,5.63
2019-04-23T04:20:35.703Z,5.47
2019-04-23T04:23:13.416Z,4.43
2019-04-23T04:33:05.102Z,4.50
2019-04-23T04:35:29.710Z,4.40
2019-04-23T04:43:17.055Z,4.10
2019-04-23T04:48:01.324Z,5.77
2019-04-23T04:50:46.029Z,4.80
2019-04-23T04:53:14.802Z,4.30
2019-04-23T04:55:57.243Z,4.07
2019-04-23T04:58:02.977Z,4.27
2019-04-23T05:00:59.623Z,6.40
2019-04-23T05:03:19.239Z,4.50
2019-04-23T05:08:12.925Z,4.20
2019-04-23T05:13:34.291Z,4.53
2019-04-23T05:18:38.453Z,4.87
2019-04-23T05:26:10.349Z,4.40
2019-04-23T05:28:49.109Z,3.57
2019-04-23T05:31:15.817Z,4.20
2019-04-23T05:33:43.403Z,3.80
2019-04-23T05:38:51.093Z,3.87
2019-04-23T05:41:20.013Z,4.17
2019-04-23T05:43:49.208Z,3.20
2019-04-23T05:46:25.076Z,4.20
2019-04-23T05:48:46.949Z,3.50
2019-04-23T05:51:22.438Z,3.50
2019-04-23T05:53:47.264Z,3.07
2019-04-23T05:56:15.230Z,3.00
2019-04-23T05:58:53.118Z,3.50
2019-04-23T06:01:47.713Z,3.20
2019-04-23T06:04:03.932Z,2.77
2019-04-23T06:06:33.139Z,3.07
2019-04-23T06:14:05.338Z,3.37
2019-04-23T06:16:33.017Z,2.77
2019-04-23T06:19:01.379Z,2.40
2019-04-23T06:21:33.960Z,1.90
2019-04-23T06:23:58.521Z,2.70
2019-04-23T06:26:40.089Z,2.50
2019-04-23T06:29:10.278Z,2.50
2019-04-23T06:31:31.178Z,2.33
2019-04-23T06:34:11.140Z,2.00
2019-04-23T06:36:34.328Z,1.80
2019-04-23T06:41:36.189Z,2.20
2019-04-23T06:44:19.321Z,3.07
2019-04-23T06:46:48.083Z,1.50
2019-04-23T06:49:22.010Z,1.40
2019-04-23T06:51:53.348Z,2.23
2019-04-23T06:54:15.324Z,1.57
2019-04-23T06:56:56.281Z,1.83
2019-04-23T06:59:12.447Z,1.73
2019-04-23T07:01:53.095Z,1.70
2019-04-23T07:04:18.036Z,1.67
2019-04-23T07:06:46.765Z,1.60
2019-04-23T07:09:13.681Z,1.50
2019-04-23T07:11:44.877Z,1.33
2019-04-23T07:14:21.875Z,1.73
2019-04-23T07:16:49.837Z,1.37
2019-04-23T07:21:51.308Z,1.77
2019-04-23T07:24:19.779Z,2.03
2019-04-23T07:26:41.978Z,2.77
2019-04-23T07:29:18.965Z,1.60
2019-04-23T07:31:55.774Z,1.40
2019-04-23T07:34:19.218Z,1.30
2019-04-23T07:39:57.081Z,1.10
2019-04-23T07:45:17.156Z,1.30
2019-04-23T07:50:49.112Z,1.10
2019-04-23T07:53:13.316Z,1.30
2019-04-23T07:55:41.410Z,0.80
2019-04-23T07:58:17.336Z,1.10
2019-04-23T08:03:16.453Z,1.20
2019-04-23T08:05:39.603Z,2.00
2019-04-23T08:08:07.142Z,1.40
2019-04-23T08:10:42.502Z,1.87
2019-04-23T08:13:14.452Z,1.67
2019-04-23T08:18:07.048Z,1.63
2019-04-23T08:20:42.582Z,1.80
2019-04-23T08:23:16.504Z,1.90
2019-04-23T08:26:17.204Z,1.87
2019-04-23T08:28:41.746Z,1.70
2019-04-23T08:31:08.308Z,1.90
2019-04-23T08:33:33.578Z,2.00
2019-04-23T08:36:06.190Z,2.03
2019-04-23T08:38:37.886Z,2.27
2019-04-23T08:41:19.915Z,1.70
2019-04-23T08:46:37.492Z,2.53
2019-04-23T08:49:01.130Z,2.73
2019-04-23T08:51:38.958Z,1.90
2019-04-23T08:53:57.030Z,1.90
2019-04-23T08:58:53.621Z,2.13
2019-04-23T09:01:24.903Z,2.17
2019-04-23T09:04:00.490Z,2.13
2019-04-23T09:06:21.704Z,2.47
2019-04-23T09:09:00.374Z,2.10
2019-04-23T09:16:28.409Z,2.87
2019-04-23T09:19:04.100Z,3.43
2019-04-23T09:21:27.610Z,4.13
2019-04-23T09:26:25.880Z,3.73
2019-04-23T09:28:56.829Z,2.60
2019-04-23T09:32:20.351Z,2.20
2019-04-23T09:35:00.817Z,1.93
2019-04-23T09:37:53.842Z,1.87
2019-04-23T09:43:08.824Z,1.70
2019-04-23T09:48:26.547Z,1.47
2019-04-23T09:53:27.695Z,1.40
2019-04-23T09:55:51.576Z,1.47
2019-04-23T09:58:41.999Z,1.53
2019-04-23T10:01:20.803Z,1.30
2019-04-23T10:03:38.573Z,1.63
2019-04-23T10:06:03.375Z,1.70
2019-04-23T10:08:31.282Z,1.40
2019-04-23T10:10:53.329Z,2.03
2019-04-23T10:13:24.066Z,1.80
2019-04-23T10:15:53.914Z,1.87
2019-04-23T10:18:24.419Z,1.83
2019-04-23T10:20:54.299Z,4.90
2019-04-23T10:23:23.352Z,6.10
2019-04-23T10:25:53.967Z,3.80
2019-04-23T10:28:27.595Z,3.47
2019-04-23T10:30:56.697Z,3.50
2019-04-23T10:33:25.710Z,3.57
2019-04-23T10:36:00.861Z,3.67
2019-04-23T10:38:26.767Z,2.73
2019-04-23T10:40:56.131Z,2.83
2019-04-23T10:43:27.479Z,3.63
2019-04-23T10:46:42.971Z,2.30
2019-04-23T10:49:53.610Z,3.27
2019-04-23T10:54:45.290Z,2.60
2019-04-23T11:07:28.538Z,1.57
2019-04-23T11:12:42.299Z,1.70
2019-04-23T11:15:23.347Z,1.90
2019-04-23T11:17:46.007Z,1.40
2019-04-23T11:25:28.455Z,1.60
2019-04-23T11:27:54.864Z,1.17
2019-04-23T11:30:25.628Z,1.37
2019-04-23T11:32:53.791Z,1.50
2019-04-23T11:35:26.199Z,1.20
2019-04-23T11:38:29.070Z,1.20
2019-04-23T11:40:23.236Z,1.37
2019-04-23T11:42:52.434Z,1.77
2019-04-23T11:45:32.277Z,1.60
2019-04-23T11:50:32.827Z,1.40
2019-04-23T11:53:07.163Z,1.50
2019-04-23T11:55:32.766Z,1.30
2019-04-23T11:57:59.185Z,1.20
2019-04-23T12:00:31.341Z,1.23
2019-04-23T12:02:59.309Z,1.17
2019-04-23T12:06:21.934Z,1.63
2019-04-23T12:08:56.820Z,1.33
2019-04-23T12:11:53.856Z,1.50
2019-04-23T12:14:32.811Z,1.50
2019-04-23T12:17:08.340Z,1.30
2019-04-23T12:22:15.163Z,1.77
2019-04-23T12:32:37.706Z,0.83
2019-04-23T12:35:03.779Z,0.90
2019-04-23T12:37:30.578Z,0.90
2019-04-23T12:40:01.383Z,1.10
2019-04-23T12:45:04.567Z,1.30
2019-04-23T12:55:10.200Z,1.20
2019-04-23T12:59:58.397Z,1.33
2019-04-23T13:02:40.240Z,1.57
2019-04-23T13:05:00.302Z,1.33
2019-04-23T13:07:47.129Z,1.00
2019-04-23T13:12:52.273Z,1.00
2019-04-23T13:15:05.308Z,1.10
2019-04-23T13:20:09.542Z,1.40
2019-04-23T13:22:39.779Z,1.13
2019-04-23T13:25:26.893Z,1.07
2019-04-23T13:28:01.948Z,1.03
2019-04-23T13:33:08.113Z,1.07
2019-04-23T13:38:08.923Z,1.30
2019-04-23T13:43:13.940Z,1.90
2019-04-23T13:45:53.542Z,1.30
2019-04-23T13:48:07.013Z,1.60
2019-04-23T13:50:43.189Z,1.10
2019-04-23T13:55:35.972Z,1.40
2019-04-23T14:03:16.825Z,1.40
2019-04-23T14:06:02.757Z,1.20
2019-04-23T14:08:45.264Z,1.00
2019-04-23T14:10:51.809Z,1.30
2019-04-23T14:16:03.540Z,1.53
2019-04-23T14:21:12.153Z,1.07
2019-04-23T14:23:55.857Z,1.00
2019-04-23T14:28:43.582Z,1.83
2019-04-23T14:31:04.707Z,1.20
2019-04-23T14:34:01.355Z,1.40
2019-04-23T14:36:07.535Z,1.30
2019-04-23T14:38:41.018Z,1.53
2019-04-23T14:41:19.512Z,1.00
2019-04-23T14:51:26.034Z,1.23
2019-04-23T14:53:45.764Z,1.40
2019-04-23T14:56:17.077Z,1.47
2019-04-23T14:58:57.445Z,0.80
2019-04-23T15:01:33.587Z,1.73
2019-04-23T15:03:49.415Z,0.87
2019-04-23T15:09:00.365Z,1.17
2019-04-23T15:13:49.958Z,1.13
2019-04-23T15:16:26.168Z,1.10
2019-04-23T15:22:04.623Z,0.97
2019-04-23T15:24:32.914Z,1.23
2019-04-23T15:29:08.651Z,1.10
2019-04-23T15:32:00.838Z,1.27
2019-04-23T15:42:06.218Z,0.83
2019-04-23T15:44:40.956Z,0.83
2019-04-23T15:47:05.124Z,1.07
2019-04-23T15:49:26.615Z,1.10
2019-04-23T15:52:27.303Z,1.30
2019-04-23T15:54:37.278Z,1.30
2019-04-23T15:59:34.680Z,1.27
2019-04-23T16:01:41.992Z,1.13
2019-04-23T16:04:06.094Z,1.10
2019-04-23T16:06:36.851Z,1.50
2019-04-23T16:09:21.341Z,1.03
2019-04-23T16:11:59.663Z,1.40
2019-04-23T16:14:42.775Z,1.50
2019-04-23T16:17:18.807Z,1.10
2019-04-23T16:20:05.994Z,1.40
2019-04-23T16:22:25.010Z,1.00
2019-04-23T16:27:21.469Z,1.30
2019-04-23T16:30:10.802Z,1.23
2019-04-23T16:32:57.901Z,1.57
2019-04-23T16:38:01.392Z,1.50
2019-04-23T16:40:31.521Z,1.13
2019-04-23T16:42:59.710Z,1.00
2019-04-23T16:45:29.444Z,1.37
2019-04-23T16:47:56.527Z,1.30
2019-04-23T16:50:32.722Z,0.80
2019-04-23T16:53:00.218Z,1.17
2019-04-23T16:55:34.645Z,1.37
2019-04-23T16:58:03.586Z,2.47
2019-04-23T17:00:33.566Z,1.20
2019-04-23T17:03:04.371Z,1.50
2019-04-23T17:05:34.171Z,1.13
2019-04-23T17:08:30.672Z,0.90
2019-04-23T17:10:37.862Z,1.30
2019-04-23T17:13:21.023Z,0.93
2019-04-23T17:15:48.395Z,1.27
2019-04-23T17:18:12.040Z,1.77
2019-04-23T17:20:44.087Z,1.20
2019-04-23T17:23:17.094Z,1.60
2019-04-23T17:25:41.698Z,1.30
2019-04-23T17:28:20.128Z,1.13
2019-04-23T17:39:14.584Z,1.50
2019-04-23T17:41:50.656Z,1.73
2019-04-23T17:44:18.654Z,1.70
2019-04-23T17:46:44.571Z,1.80
2019-04-23T17:49:16.912Z,1.27
2019-04-23T17:51:46.883Z,1.20
2019-04-23T17:56:55.294Z,1.07
2019-04-23T17:59:33.295Z,1.30
2019-04-23T18:01:47.265Z,1.30
2019-04-23T18:04:22.597Z,1.53
2019-04-23T18:07:04.410Z,1.23
2019-04-23T18:09:25.593Z,1.73
2019-04-23T18:11:58.173Z,1.57
2019-04-23T18:14:11.777Z,1.50
2019-04-23T18:19:18.804Z,1.50
2019-04-23T18:22:16.967Z,1.20
2019-04-23T18:27:26.250Z,1.37
2019-04-23T18:30:15.494Z,1.40
2019-04-23T18:33:34.034Z,1.03
2019-04-23T18:38:07.286Z,1.47
2019-04-23T18:40:43.454Z,1.10
2019-04-23T18:43:13.825Z,1.50
2019-04-23T18:45:38.669Z,1.50
2019-04-23T18:48:33.011Z,1.43
2019-04-23T18:53:36.615Z,1.43
2019-04-23T18:56:03.559Z,1.50
2019-04-23T18:58:23.958Z,1.43
2019-04-23T19:01:14.013Z,1.17
2019-04-23T19:04:00.425Z,1.30
2019-04-23T19:06:47.384Z,1.40
2019-04-23T19:09:39.158Z,1.30
2019-04-23T19:12:19.620Z,1.10
2019-04-23T19:19:55.041Z,1.20
2019-04-23T19:22:20.732Z,1.13
2019-04-23T19:27:16.841Z,1.20
2019-04-23T19:29:50.404Z,1.20
2019-04-23T19:32:06.601Z,1.23
2019-04-23T19:37:43.918Z,1.10
2019-04-23T19:39:50.130Z,1.13
2019-04-23T19:42:30.897Z,1.00
2019-04-23T19:47:27.188Z,1.00
2019-04-23T19:49:48.457Z,1.23
2019-04-23T19:52:21.869Z,1.10
2019-04-23T19:54:56.131Z,0.90
2019-04-23T19:57:22.098Z,1.20
2019-04-23T20:02:45.251Z,1.00
2019-04-23T20:04:55.214Z,0.80
2019-04-23T20:07:35.036Z,1.10
2019-04-23T20:09:51.622Z,1.47
2019-04-23T20:12:30.086Z,1.07
2019-04-23T20:15:29.951Z,0.90
2019-04-23T20:19:57.047Z,1.03
2019-04-23T20:27:33.637Z,0.83
2019-04-23T20:30:46.948Z,0.80
2019-04-23T20:35:52.396Z,0.70
2019-04-23T20:43:25.590Z,0.73
2019-04-23T20:45:54.604Z,0.70
2019-04-23T20:48:25.178Z,1.00
2019-04-23T20:53:23.706Z,0.70
2019-04-23T20:56:13.949Z,1.00
2019-04-23T20:58:48.255Z,1.00
2019-04-23T21:01:33.950Z,0.80
2019-04-23T21:03:55.232Z,0.70
2019-04-23T21:06:44.217Z,1.00
2019-04-23T21:09:17.429Z,0.70
2019-04-23T21:14:22.671Z,0.60
2019-04-23T21:16:35.690Z,0.93
2019-04-23T21:19:02.687Z,1.00
2019-04-23T21:21:33.532Z,0.77
2019-04-23T21:26:35.839Z,0.83
2019-04-23T21:29:02.112Z,0.80
2019-04-23T21:32:02.514Z,0.90
2019-04-23T21:34:13.065Z,0.87
2019-04-23T21:36:51.049Z,0.80
2019-04-23T21:39:38.568Z,0.70
2019-04-23T21:44:28.805Z,0.80
2019-04-23T21:47:01.272Z,1.00
2019-04-23T21:49:50.639Z,0.60
2019-04-23T21:52:05.059Z,0.60
2019-04-23T21:54:41.227Z,0.60
2019-04-23T21:57:02.421Z,0.70
2019-04-23T21:59:39.586Z,0.90
2019-04-23T22:02:28.154Z,1.00
2019-04-23T22:04:39.964Z,0.77
2019-04-23T22:07:11.986Z,0.80
2019-04-23T22:09:48.013Z,0.60
2019-04-23T22:12:08.508Z,0.73
2019-04-23T22:14:55.394Z,0.63
2019-04-23T22:17:20.551Z,0.60
2019-04-23T22:19:45.563Z,1.00
2019-04-23T22:22:12.644Z,0.73
2019-04-23T22:27:09.747Z,0.90
2019-04-23T22:29:44.704Z,0.80
2019-04-23T22:32:12.854Z,1.00
2019-04-23T22:34:47.118Z,0.70
2019-04-23T22:37:19.404Z,0.70
2019-04-23T22:40:02.568Z,0.60
2019-04-23T22:42:26.054Z,0.70
2019-04-23T22:45:00.703Z,0.60
2019-04-23T22:47:05.962Z,0.63
2019-04-23T22:52:23.278Z,0.73
2019-04-23T22:57:20.976Z,0.80
2019-04-23T23:00:02.365Z,0.70
2019-04-23T23:03:06.388Z,0.53
2019-04-23T23:10:42.690Z,0.67
2019-04-23T23:15:44.989Z,0.60
2019-04-23T23:20:47.819Z,0.60
2019-04-23T23:23:11.227Z,0.70
2019-04-23T23:28:11.614Z,0.50
2019-04-23T23:30:45.260Z,0.90
2019-04-23T23:33:13.313Z,0.70
2019-04-23T23:38:13.717Z,0.83
2019-04-23T23:40:47.807Z,0.60
2019-04-23T23:43:21.250Z,0.70
2019-04-23T23:48:12.864Z,0.80
2019-04-23T23:55:51.885Z,0.90
